EPZG

Zielona Góra-Babimost Airport

Babimost, Poland
METAR EPZG 170730Z 20006KT 5000 BR BKN007 01/01 Q1014
Observed Flight Rules
Dec-17 @ 07:30 UTC (47 minutes ago) Instrument Flight Rules
Wind Visibility Clouds Conditions
200° at 6 knots 5,005 meters
  • Broken at 700' AGL
  • Mist
Temperatures Readings
Current 1°C / 34°F
Dewpoint 1°C / 34°F
Humidity 100%
Altimeter 29.94" Hg
Pressure 1014 hPa
Elevation 59
METAR EPZG 170730Z 20006KT 5000 BR BKN007 01/01 Q1014
Observed Flight Rules
Dec-17 @ 07:30 UTC
(47 minutes ago)
IFR
Wind Visibility
200° at 6 knots 5,005 meters
Clouds
  • Broken at 700' AGL
Conditions
  • Mist
Temperature Dewpoint
1°C / 34°F 1°C / 34°F
Humidity Altimeter Pressure
100% 29.94" Hg 1014 hPa